sensor_id;sensor_type;location;lat;lon;timestamp;pressure;altitude;pressure_sealevel;temperature;humidity
58092;BME280;43896;48.178;11.578;2023-02-21T00:01:27;96322.06;;;10.22;44.44
58092;BME280;43896;48.178;11.578;2023-02-21T00:04:11;96318.50;;;10.13;45.14
58092;BME280;43896;48.178;11.578;2023-02-21T00:06:55;96319.72;;;10.19;45.08
58092;BME280;43896;48.178;11.578;2023-02-21T00:09:39;96328.47;;;10.10;45.02
58092;BME280;43896;48.178;11.578;2023-02-21T00:12:23;96328.63;;;10.08;45.22
58092;BME280;43896;48.178;11.578;2023-02-21T00:15:07;96321.03;;;10.05;45.37
58092;BME280;43896;48.178;11.578;2023-02-21T00:17:51;96299.19;;;9.95;45.12
58092;BME280;43896;48.178;11.578;2023-02-21T00:20:35;96325.03;;;10.09;45.58
58092;BME280;43896;48.178;11.578;2023-02-21T00:23:19;96322.41;;;10.09;45.35
58092;BME280;43896;48.178;11.578;2023-02-21T00:26:03;96315.75;;;10.05;45.18
58092;BME280;43896;48.178;11.578;2023-02-21T00:28:47;96320.47;;;10.11;45.28
58092;BME280;43896;48.178;11.578;2023-02-21T00:31:31;96297.03;;;9.90;45.77
58092;BME280;43896;48.178;11.578;2023-02-21T00:34:15;96299.75;;;9.99;45.87
58092;BME280;43896;48.178;11.578;2023-02-21T00:36:59;96311.50;;;10.04;45.50
58092;BME280;43896;48.178;11.578;2023-02-21T00:39:43;96291.63;;;9.82;45.97
58092;BME280;43896;48.178;11.578;2023-02-21T00:42:27;96288.19;;;9.82;46.08
58092;BME280;43896;48.178;11.578;2023-02-21T00:45:10;96297.28;;;9.87;45.93
58092;BME280;43896;48.178;11.578;2023-02-21T00:47:54;96295.09;;;9.83;46.33
58092;BME280;43896;48.178;11.578;2023-02-21T00:50:38;96310.56;;;9.86;46.60
58092;BME280;43896;48.178;11.578;2023-02-21T00:53:23;96306.41;;;9.83;46.63
58092;BME280;43896;48.178;11.578;2023-02-21T00:56:07;96314.75;;;9.79;47.32
58092;BME280;43896;48.178;11.578;2023-02-21T00:58:51;96298.44;;;9.65;47.44
58092;BME280;43896;48.178;11.578;2023-02-21T01:01:35;96282.72;;;9.46;47.80
58092;BME280;43896;48.178;11.578;2023-02-21T01:04:18;96290.16;;;9.50;47.47
58092;BME280;43896;48.178;11.578;2023-02-21T01:07:02;96308.13;;;9.65;47.40
58092;BME280;43896;48.178;11.578;2023-02-21T01:09:46;96303.56;;;9.57;48.12
58092;BME280;43896;48.178;11.578;2023-02-21T01:12:30;96288.25;;;9.43;48.19
58092;BME280;43896;48.178;11.578;2023-02-21T01:15:14;96306.78;;;9.51;47.70
58092;BME280;43896;48.178;11.578;2023-02-21T01:17:58;96281.34;;;9.42;48.10
58092;BME280;43896;48.178;11.578;2023-02-21T01:20:42;96291.44;;;9.46;48.07
58092;BME280;43896;48.178;11.578;2023-02-21T01:23:26;96279.69;;;9.41;48.42
58092;BME280;43896;48.178;11.578;2023-02-21T01:26:10;96285.31;;;9.55;48.37
58092;BME280;43896;48.178;11.578;2023-02-21T01:28:54;96285.19;;;9.57;48.13
58092;BME280;43896;48.178;11.578;2023-02-21T01:31:38;96270.16;;;9.49;48.01
58092;BME280;43896;48.178;11.578;2023-02-21T01:34:22;96274.28;;;9.52;48.50
58092;BME280;43896;48.178;11.578;2023-02-21T01:37:05;96277.44;;;9.55;48.24
58092;BME280;43896;48.178;11.578;2023-02-21T01:39:49;96258.28;;;9.35;48.34
58092;BME280;43896;48.178;11.578;2023-02-21T01:42:33;96280.09;;;9.46;48.85
58092;BME280;43896;48.178;11.578;2023-02-21T01:48:19;96282.88;;;9.34;49.26
58092;BME280;43896;48.178;11.578;2023-02-21T01:51:07;96279.81;;;9.29;49.54
58092;BME280;43896;48.178;11.578;2023-02-21T01:53:53;96263.25;;;9.29;49.53
58092;BME280;43896;48.178;11.578;2023-02-21T01:56:38;96262.59;;;9.27;49.68
58092;BME280;43896;48.178;11.578;2023-02-21T01:59:24;96266.44;;;9.32;50.07
58092;BME280;43896;48.178;11.578;2023-02-21T02:02:17;96261.19;;;9.32;49.85
58092;BME280;43896;48.178;11.578;2023-02-21T02:05:03;96254.00;;;9.25;50.03
58092;BME280;43896;48.178;11.578;2023-02-21T02:07:48;96259.81;;;9.18;49.95
58092;BME280;43896;48.178;11.578;2023-02-21T02:10:34;96254.28;;;9.22;50.39
58092;BME280;43896;48.178;11.578;2023-02-21T02:16:12;96234.38;;;9.09;50.00
58092;BME280;43896;48.178;11.578;2023-02-21T02:24:42;96258.28;;;9.16;50.81
58092;BME280;43896;48.178;11.578;2023-02-21T02:27:33;96238.53;;;9.02;50.88
58092;BME280;43896;48.178;11.578;2023-02-21T02:33:13;96256.34;;;8.98;50.45
58092;BME280;43896;48.178;11.578;2023-02-21T02:35:49;96246.44;;;8.92;51.11
58092;BME280;43896;48.178;11.578;2023-02-21T02:38:24;96238.28;;;8.86;51.42
58092;BME280;43896;48.178;11.578;2023-02-21T02:44:09;96238.25;;;8.56;52.05
58092;BME280;43896;48.178;11.578;2023-02-21T02:46:38;96242.94;;;8.53;52.81
58092;BME280;43896;48.178;11.578;2023-02-21T02:49:11;96243.50;;;8.56;51.82
58092;BME280;43896;48.178;11.578;2023-02-21T02:51:38;96234.66;;;8.57;52.66
58092;BME280;43896;48.178;11.578;2023-02-21T02:54:04;96232.28;;;8.54;52.58
58092;BME280;43896;48.178;11.578;2023-02-21T02:56:29;96228.69;;;8.45;52.95
58092;BME280;43896;48.178;11.578;2023-02-21T02:59:10;96236.84;;;8.42;52.91
58092;BME280;43896;48.178;11.578;2023-02-21T03:02:10;96242.66;;;8.15;53.87
58092;BME280;43896;48.178;11.578;2023-02-21T03:15:49;96239.38;;;7.82;55.17
58092;BME280;43896;48.178;11.578;2023-02-21T03:18:34;96234.41;;;7.79;55.33
58092;BME280;43896;48.178;11.578;2023-02-21T03:21:04;96243.88;;;7.80;54.71
58092;BME280;43896;48.178;11.578;2023-02-21T03:23:33;96219.56;;;7.59;55.80
58092;BME280;43896;48.178;11.578;2023-02-21T03:26:03;96230.78;;;7.70;55.92
58092;BME280;43896;48.178;11.578;2023-02-21T03:28:31;96239.06;;;7.76;55.02
58092;BME280;43896;48.178;11.578;2023-02-21T03:30:58;96238.19;;;7.65;55.73
58092;BME280;43896;48.178;11.578;2023-02-21T03:33:24;96241.25;;;7.70;55.14
58092;BME280;43896;48.178;11.578;2023-02-21T03:35:51;96237.34;;;7.65;55.78
58092;BME280;43896;48.178;11.578;2023-02-21T03:38:17;96227.09;;;7.52;55.47
58092;BME280;43896;48.178;11.578;2023-02-21T03:40:42;96234.88;;;7.63;55.83
58092;BME280;43896;48.178;11.578;2023-02-21T03:43:07;96224.19;;;7.76;55.36
58092;BME280;43896;48.178;11.578;2023-02-21T03:45:34;96228.09;;;7.92;54.55
58092;BME280;43896;48.178;11.578;2023-02-21T03:47:59;96230.78;;;8.01;55.26
58092;BME280;43896;48.178;11.578;2023-02-21T03:50:25;96237.81;;;8.11;54.45
58092;BME280;43896;48.178;11.578;2023-02-21T03:52:50;96218.53;;;8.12;53.63
58092;BME280;43896;48.178;11.578;2023-02-21T03:55:16;96242.72;;;8.35;53.97
58092;BME280;43896;48.178;11.578;2023-02-21T03:57:42;96234.59;;;8.38;53.97
58092;BME280;43896;48.178;11.578;2023-02-21T04:00:07;96239.16;;;8.36;53.23
58092;BME280;43896;48.178;11.578;2023-02-21T04:02:33;96225.31;;;8.34;53.77
58092;BME280;43896;48.178;11.578;2023-02-21T04:04:58;96236.69;;;8.44;53.37
58092;BME280;43896;48.178;11.578;2023-02-21T04:07:25;96234.06;;;8.44;53.89
58092;BME280;43896;48.178;11.578;2023-02-21T04:09:50;96214.72;;;8.35;52.68
58092;BME280;43896;48.178;11.578;2023-02-21T04:12:15;96238.78;;;8.50;53.39
58092;BME280;43896;48.178;11.578;2023-02-21T04:14:41;96216.50;;;8.35;53.00
58092;BME280;43896;48.178;11.578;2023-02-21T04:17:06;96218.19;;;8.36;52.52
58092;BME280;43896;48.178;11.578;2023-02-21T04:19:32;96224.66;;;8.41;52.76
58092;BME280;43896;48.178;11.578;2023-02-21T04:21:57;96239.47;;;8.52;52.77
58092;BME280;43896;48.178;11.578;2023-02-21T04:24:22;96228.00;;;8.43;53.36
58092;BME280;43896;48.178;11.578;2023-02-21T04:26:48;96219.69;;;8.38;53.28
58092;BME280;43896;48.178;11.578;2023-02-21T04:29:13;96227.88;;;8.45;53.89
58092;BME280;43896;48.178;11.578;2023-02-21T04:31:39;96211.00;;;8.38;52.80
58092;BME280;43896;48.178;11.578;2023-02-21T04:34:04;96225.94;;;8.47;53.56
58092;BME280;43896;48.178;11.578;2023-02-21T04:36:29;96220.69;;;8.47;53.87
58092;BME280;43896;48.178;11.578;2023-02-21T04:38:54;96217.06;;;8.38;53.32
58092;BME280;43896;48.178;11.578;2023-02-21T04:41:20;96201.75;;;8.34;53.91
58092;BME280;43896;48.178;11.578;2023-02-21T04:43:46;96208.38;;;8.38;53.49
58092;BME280;43896;48.178;11.578;2023-02-21T04:46:16;96224.84;;;8.50;53.04
58092;BME280;43896;48.178;11.578;2023-02-21T04:48:44;96202.84;;;8.31;53.36
58092;BME280;43896;48.178;11.578;2023-02-21T04:51:10;96226.47;;;8.41;54.01
58092;BME280;43896;48.178;11.578;2023-02-21T04:53:36;96210.31;;;8.36;54.07
58092;BME280;43896;48.178;11.578;2023-02-21T04:56:02;96210.03;;;8.39;53.91
58092;BME280;43896;48.178;11.578;2023-02-21T04:58:27;96208.63;;;8.15;54.50
58092;BME280;43896;48.178;11.578;2023-02-21T05:00:52;96210.16;;;8.27;54.49
58092;BME280;43896;48.178;11.578;2023-02-21T05:03:17;96207.53;;;8.27;54.62
58092;BME280;43896;48.178;11.578;2023-02-21T05:05:43;96197.75;;;8.30;54.18
58092;BME280;43896;48.178;11.578;2023-02-21T05:08:08;96214.91;;;8.43;54.20
58092;BME280;43896;48.178;11.578;2023-02-21T05:10:34;96204.41;;;8.43;54.26
58092;BME280;43896;48.178;11.578;2023-02-21T05:12:59;96194.28;;;8.39;54.02
58092;BME280;43896;48.178;11.578;2023-02-21T05:15:24;96208.28;;;8.49;53.62
58092;BME280;43896;48.178;11.578;2023-02-21T05:17:50;96188.25;;;8.38;54.09
58092;BME280;43896;48.178;11.578;2023-02-21T05:20:15;96185.25;;;8.43;53.89
58092;BME280;43896;48.178;11.578;2023-02-21T05:22:41;96189.94;;;8.49;54.04
58092;BME280;43896;48.178;11.578;2023-02-21T05:25:16;96191.72;;;8.49;53.76
58092;BME280;43896;48.178;11.578;2023-02-21T05:27:42;96185.25;;;8.43;53.53
58092;BME280;43896;48.178;11.578;2023-02-21T05:30:08;96199.84;;;8.45;53.98
58092;BME280;43896;48.178;11.578;2023-02-21T05:32:34;96184.78;;;8.38;53.77
58092;BME280;43896;48.178;11.578;2023-02-21T05:34:59;96189.50;;;8.44;53.46
58092;BME280;43896;48.178;11.578;2023-02-21T05:37:24;96176.50;;;8.33;53.77
58092;BME280;43896;48.178;11.578;2023-02-21T05:39:50;96196.41;;;8.45;53.57
58092;BME280;43896;48.178;11.578;2023-02-21T05:42:16;96180.09;;;8.41;53.92
58092;BME280;43896;48.178;11.578;2023-02-21T05:44:45;96186.06;;;8.43;53.23
58092;BME280;43896;48.178;11.578;2023-02-21T05:47:11;96194.63;;;8.45;52.99
58092;BME280;43896;48.178;11.578;2023-02-21T05:49:36;96177.34;;;8.23;53.21
58092;BME280;43896;48.178;11.578;2023-02-21T05:52:02;96165.63;;;8.27;53.49
58092;BME280;43896;48.178;11.578;2023-02-21T05:54:29;96168.91;;;8.30;52.77
58092;BME280;43896;48.178;11.578;2023-02-21T05:56:54;96162.31;;;8.25;53.29
58092;BME280;43896;48.178;11.578;2023-02-21T05:59:20;96187.41;;;8.38;52.63
58092;BME280;43896;48.178;11.578;2023-02-21T06:01:46;96190.44;;;8.33;52.88
58092;BME280;43896;48.178;11.578;2023-02-21T06:04:12;96189.06;;;8.39;53.05
58092;BME280;43896;48.178;11.578;2023-02-21T06:06:37;96169.06;;;8.38;52.71
58092;BME280;43896;48.178;11.578;2023-02-21T06:09:04;96183.72;;;8.50;52.46
58092;BME280;43896;48.178;11.578;2023-02-21T06:11:31;96161.06;;;8.30;52.60
58092;BME280;43896;48.178;11.578;2023-02-21T06:14:03;96187.97;;;8.41;52.70
58092;BME280;43896;48.178;11.578;2023-02-21T06:16:33;96176.94;;;8.38;52.67
58092;BME280;43896;48.178;11.578;2023-02-21T06:18:59;96183.53;;;8.42;52.08
58092;BME280;43896;48.178;11.578;2023-02-21T06:21:25;96199.53;;;8.39;52.15
58092;BME280;43896;48.178;11.578;2023-02-21T06:23:50;96192.41;;;8.41;52.31
58092;BME280;43896;48.178;11.578;2023-02-21T06:26:16;96209.41;;;8.56;51.96
58092;BME280;43896;48.178;11.578;2023-02-21T06:28:42;96202.38;;;8.57;51.70
58092;BME280;43896;48.178;11.578;2023-02-21T06:31:07;96210.91;;;8.59;52.10
58092;BME280;43896;48.178;11.578;2023-02-21T06:33:33;96209.84;;;8.61;51.86
58092;BME280;43896;48.178;11.578;2023-02-21T06:36:03;96211.59;;;8.61;51.41
58092;BME280;43896;48.178;11.578;2023-02-21T06:38:28;96209.53;;;8.64;52.13
58092;BME280;43896;48.178;11.578;2023-02-21T06:40:53;96212.75;;;8.68;51.41
58092;BME280;43896;48.178;11.578;2023-02-21T06:43:19;96213.97;;;8.74;50.78
58092;BME280;43896;48.178;11.578;2023-02-21T06:45:44;96213.84;;;8.95;50.18
58092;BME280;43896;48.178;11.578;2023-02-21T06:48:14;96211.31;;;9.23;49.93
58092;BME280;43896;48.178;11.578;2023-02-21T06:50:39;96197.53;;;9.20;49.07
58092;BME280;43896;48.178;11.578;2023-02-21T06:53:05;96214.47;;;9.36;48.84
58092;BME280;43896;48.178;11.578;2023-02-21T06:55:30;96223.03;;;9.48;49.28
58092;BME280;43896;48.178;11.578;2023-02-21T06:57:55;96227.06;;;9.42;48.69
58092;BME280;43896;48.178;11.578;2023-02-21T07:00:21;96218.91;;;9.35;48.78
58092;BME280;43896;48.178;11.578;2023-02-21T07:02:46;96238.50;;;9.41;48.73
58092;BME280;43896;48.178;11.578;2023-02-21T07:05:11;96245.84;;;9.47;48.86
58092;BME280;43896;48.178;11.578;2023-02-21T07:07:37;96240.72;;;9.46;48.96
58092;BME280;43896;48.178;11.578;2023-02-21T07:10:02;96225.53;;;9.39;48.49
58092;BME280;43896;48.178;11.578;2023-02-21T07:12:28;96239.72;;;9.56;48.45
58092;BME280;43896;48.178;11.578;2023-02-21T07:14:53;96244.97;;;9.66;48.89
58092;BME280;43896;48.178;11.578;2023-02-21T07:17:19;96232.13;;;9.63;48.34
58092;BME280;43896;48.178;11.578;2023-02-21T07:19:44;96230.84;;;9.67;48.43
58092;BME280;43896;48.178;11.578;2023-02-21T07:22:10;96234.56;;;9.74;48.33
58092;BME280;43896;48.178;11.578;2023-02-21T07:24:35;96237.28;;;9.83;48.22
58092;BME280;43896;48.178;11.578;2023-02-21T07:27:01;96238.69;;;9.87;48.12
58092;BME280;43896;48.178;11.578;2023-02-21T07:29:26;96224.00;;;9.94;47.62
58092;BME280;43896;48.178;11.578;2023-02-21T07:31:52;96233.38;;;9.97;47.75
58092;BME280;43896;48.178;11.578;2023-02-21T07:34:17;96241.91;;;10.08;47.93
58092;BME280;43896;48.178;11.578;2023-02-21T07:36:44;96236.09;;;10.05;47.52
58092;BME280;43896;48.178;11.578;2023-02-21T07:39:10;96229.94;;;9.96;47.40
58092;BME280;43896;48.178;11.578;2023-02-21T07:41:35;96230.09;;;9.85;47.80
58092;BME280;43896;48.178;11.578;2023-02-21T07:44:00;96236.41;;;10.02;47.38
58092;BME280;43896;48.178;11.578;2023-02-21T07:46:27;96239.31;;;9.99;46.98
58092;BME280;43896;48.178;11.578;2023-02-21T07:48:53;96247.69;;;10.12;46.98
58092;BME280;43896;48.178;11.578;2023-02-21T07:51:18;96250.44;;;10.20;46.85
58092;BME280;43896;48.178;11.578;2023-02-21T07:53:44;96257.03;;;10.34;46.90
58092;BME280;43896;48.178;11.578;2023-02-21T07:56:09;96264.75;;;10.45;46.31
58092;BME280;43896;48.178;11.578;2023-02-21T07:58:34;96236.63;;;10.46;45.68
58092;BME280;43896;48.178;11.578;2023-02-21T08:01:02;96241.84;;;10.56;45.63
58092;BME280;43896;48.178;11.578;2023-02-21T08:03:28;96259.13;;;10.58;45.81
58092;BME280;43896;48.178;11.578;2023-02-21T08:05:53;96265.97;;;10.69;45.71
58092;BME280;43896;48.178;11.578;2023-02-21T08:08:19;96249.56;;;10.57;45.46
58092;BME280;43896;48.178;11.578;2023-02-21T08:10:44;96250.50;;;10.66;45.33
58092;BME280;43896;48.178;11.578;2023-02-21T08:13:09;96242.38;;;10.77;45.04
58092;BME280;43896;48.178;11.578;2023-02-21T08:15:35;96259.75;;;11.06;44.58
58092;BME280;43896;48.178;11.578;2023-02-21T08:18:00;96249.53;;;11.03;44.73
58092;BME280;43896;48.178;11.578;2023-02-21T08:20:25;96248.69;;;11.20;43.93
58092;BME280;43896;48.178;11.578;2023-02-21T08:22:50;96249.28;;;11.32;43.69
58092;BME280;43896;48.178;11.578;2023-02-21T08:25:16;96247.81;;;11.56;43.07
58092;BME280;43896;48.178;11.578;2023-02-21T08:27:42;96259.59;;;11.70;42.94
58092;BME280;43896;48.178;11.578;2023-02-21T08:30:09;96264.88;;;11.96;42.73
58092;BME280;43896;48.178;11.578;2023-02-21T08:32:35;96260.22;;;12.16;42.65
58092;BME280;43896;48.178;11.578;2023-02-21T08:35:02;96265.94;;;12.46;41.77
58092;BME280;43896;48.178;11.578;2023-02-21T08:37:29;96267.03;;;12.69;41.39
58092;BME280;43896;48.178;11.578;2023-02-21T08:39:58;96244.47;;;12.91;40.94
58092;BME280;43896;48.178;11.578;2023-02-21T08:42:24;96259.53;;;13.16;40.40
58092;BME280;43896;48.178;11.578;2023-02-21T08:44:49;96253.41;;;13.23;40.24
58092;BME280;43896;48.178;11.578;2023-02-21T08:47:15;96261.38;;;13.48;40.01
58092;BME280;43896;48.178;11.578;2023-02-21T08:49:46;96263.69;;;13.51;39.68
58092;BME280;43896;48.178;11.578;2023-02-21T08:52:15;96249.47;;;13.36;39.94
58092;BME280;43896;48.178;11.578;2023-02-21T08:54:42;96265.34;;;13.36;39.68
58092;BME280;43896;48.178;11.578;2023-02-21T08:57:08;96253.59;;;13.30;39.64
58092;BME280;43896;48.178;11.578;2023-02-21T08:59:33;96251.63;;;13.32;40.49
58092;BME280;43896;48.178;11.578;2023-02-21T09:02:00;96268.47;;;13.47;39.28
58092;BME280;43896;48.178;11.578;2023-02-21T09:04:25;96264.84;;;13.57;39.17
58092;BME280;43896;48.178;11.578;2023-02-21T09:06:52;96253.59;;;13.63;38.82
58092;BME280;43896;48.178;11.578;2023-02-21T09:09:18;96258.97;;;14.02;38.53
58092;BME280;43896;48.178;11.578;2023-02-21T09:11:45;96260.72;;;14.26;38.06
58092;BME280;43896;48.178;11.578;2023-02-21T09:14:13;96258.31;;;14.17;38.79
58092;BME280;43896;48.178;11.578;2023-02-21T09:16:38;96257.06;;;14.36;38.08
58092;BME280;43896;48.178;11.578;2023-02-21T09:19:04;96232.84;;;14.55;37.46
58092;BME280;43896;48.178;11.578;2023-02-21T09:21:31;96252.16;;;14.95;36.64
58092;BME280;43896;48.178;11.578;2023-02-21T09:23:57;96251.81;;;13.55;38.82
58092;BME280;43896;48.178;11.578;2023-02-21T09:26:24;96253.09;;;13.26;38.99
58092;BME280;43896;48.178;11.578;2023-02-21T09:28:52;96262.09;;;14.14;38.82
58092;BME280;43896;48.178;11.578;2023-02-21T09:31:19;96256.25;;;14.75;37.27
58092;BME280;43896;48.178;11.578;2023-02-21T09:33:44;96259.53;;;13.65;38.33
58092;BME280;43896;48.178;11.578;2023-02-21T09:36:10;96253.88;;;14.49;37.37
58092;BME280;43896;48.178;11.578;2023-02-21T09:38:36;96260.41;;;15.00;36.13
58092;BME280;43896;48.178;11.578;2023-02-21T09:41:05;96253.06;;;15.11;35.73
58092;BME280;43896;48.178;11.578;2023-02-21T09:43:33;96249.38;;;15.20;35.47
58092;BME280;43896;48.178;11.578;2023-02-21T09:46:02;96251.69;;;15.38;35.52
58092;BME280;43896;48.178;11.578;2023-02-21T09:48:29;96253.81;;;15.43;34.51
58092;BME280;43896;48.178;11.578;2023-02-21T09:51:01;96243.28;;;15.34;34.76
58092;BME280;43896;48.178;11.578;2023-02-21T09:53:31;96233.47;;;15.58;34.63
58092;BME280;43896;48.178;11.578;2023-02-21T09:56:01;96245.63;;;15.75;34.21
58092;BME280;43896;48.178;11.578;2023-02-21T09:58:29;96221.31;;;15.87;34.05
58092;BME280;43896;48.178;11.578;2023-02-21T10:00:57;96240.63;;;16.40;33.50
58092;BME280;43896;48.178;11.578;2023-02-21T10:03:37;96240.81;;;16.75;32.79
58092;BME280;43896;48.178;11.578;2023-02-21T10:06:32;96230.97;;;17.27;32.72
58092;BME280;43896;48.178;11.578;2023-02-21T10:11:52;96234.31;;;18.14;30.76
58092;BME280;43896;48.178;11.578;2023-02-21T10:14:31;96233.94;;;18.59;29.90
58092;BME280;43896;48.178;11.578;2023-02-21T10:17:12;96227.19;;;18.69;29.67
58092;BME280;43896;48.178;11.578;2023-02-21T10:19:43;96228.81;;;19.19;29.17
58092;BME280;43896;48.178;11.578;2023-02-21T10:22:22;96228.59;;;19.34;28.37
58092;BME280;43896;48.178;11.578;2023-02-21T10:24:51;96229.53;;;18.92;29.25
58092;BME280;43896;48.178;11.578;2023-02-21T10:27:25;96242.75;;;17.89;30.36
58092;BME280;43896;48.178;11.578;2023-02-21T10:29:54;96253.28;;;16.75;32.79
58092;BME280;43896;48.178;11.578;2023-02-21T10:32:22;96234.94;;;16.28;33.11
58092;BME280;43896;48.178;11.578;2023-02-21T10:34:49;96241.00;;;17.10;32.18
58092;BME280;43896;48.178;11.578;2023-02-21T10:37:25;96236.97;;;17.36;31.81
58092;BME280;43896;48.178;11.578;2023-02-21T10:39:55;96248.47;;;17.65;30.83
58092;BME280;43896;48.178;11.578;2023-02-21T10:42:32;96245.44;;;18.24;29.60
58092;BME280;43896;48.178;11.578;2023-02-21T10:44:59;96240.50;;;18.21;29.34
58092;BME280;43896;48.178;11.578;2023-02-21T10:47:44;96245.69;;;16.57;32.55
58092;BME280;43896;48.178;11.578;2023-02-21T10:50:12;96237.31;;;17.76;30.54
58092;BME280;43896;48.178;11.578;2023-02-21T10:52:46;96243.00;;;18.29;30.25
58092;BME280;43896;48.178;11.578;2023-02-21T10:57:42;96230.56;;;18.85;29.43
58092;BME280;43896;48.178;11.578;2023-02-21T11:00:29;96222.88;;;18.68;30.06
58092;BME280;43896;48.178;11.578;2023-02-21T11:03:04;96208.91;;;19.21;29.79
58092;BME280;43896;48.178;11.578;2023-02-21T11:05:31;96216.06;;;19.14;29.06
58092;BME280;43896;48.178;11.578;2023-02-21T11:10:39;96215.06;;;19.28;29.22
58092;BME280;43896;48.178;11.578;2023-02-21T11:13:19;96209.50;;;19.23;30.21
58092;BME280;43896;48.178;11.578;2023-02-21T11:15:45;96202.09;;;18.99;30.15
58092;BME280;43896;48.178;11.578;2023-02-21T11:18:22;96204.28;;;18.82;30.14
58092;BME280;43896;48.178;11.578;2023-02-21T11:20:49;96202.72;;;19.01;29.36
58092;BME280;43896;48.178;11.578;2023-02-21T11:25:42;96200.47;;;18.49;31.34
58092;BME280;43896;48.178;11.578;2023-02-21T11:33:55;96187.13;;;18.01;32.44
58092;BME280;43896;48.178;11.578;2023-02-21T11:36:26;96179.03;;;17.81;31.36
58092;BME280;43896;48.178;11.578;2023-02-21T11:39:05;96174.09;;;18.13;31.62
58092;BME280;43896;48.178;11.578;2023-02-21T11:41:36;96176.47;;;18.36;30.70
58092;BME280;43896;48.178;11.578;2023-02-21T11:44:02;96167.53;;;18.57;30.18
58092;BME280;43896;48.178;11.578;2023-02-21T11:46:47;96165.50;;;18.66;31.17
58092;BME280;43896;48.178;11.578;2023-02-21T11:49:23;96151.63;;;18.84;30.93
58092;BME280;43896;48.178;11.578;2023-02-21T11:52:14;96164.25;;;18.55;31.05
58092;BME280;43896;48.178;11.578;2023-02-21T11:54:42;96150.28;;;18.40;30.91
58092;BME280;43896;48.178;11.578;2023-02-21T11:59:55;96150.06;;;17.65;32.28
58092;BME280;43896;48.178;11.578;2023-02-21T12:11:08;96134.94;;;17.37;33.00
58092;BME280;43896;48.178;11.578;2023-02-21T12:19:20;96121.88;;;16.12;35.24
58092;BME280;43896;48.178;11.578;2023-02-21T12:22:01;96126.72;;;16.67;33.63
58092;BME280;43896;48.178;11.578;2023-02-21T12:27:33;96110.56;;;17.05;33.49
58092;BME280;43896;48.178;11.578;2023-02-21T12:30:04;96106.84;;;17.28;32.38
58092;BME280;43896;48.178;11.578;2023-02-21T12:37:49;96102.16;;;16.80;33.99
58092;BME280;43896;48.178;11.578;2023-02-21T12:43:23;96095.59;;;16.18;35.58
58092;BME280;43896;48.178;11.578;2023-02-21T12:45:53;96092.88;;;15.96;35.97
58092;BME280;43896;48.178;11.578;2023-02-21T12:48:36;96088.13;;;16.28;35.87
58092;BME280;43896;48.178;11.578;2023-02-21T12:51:07;96084.25;;;16.67;34.87
58092;BME280;43896;48.178;11.578;2023-02-21T12:53:51;96065.59;;;16.82;34.13
58092;BME280;43896;48.178;11.578;2023-02-21T12:56:29;96075.81;;;17.06;33.39
58092;BME280;43896;48.178;11.578;2023-02-21T12:59:11;96063.34;;;16.57;34.67
58092;BME280;43896;48.178;11.578;2023-02-21T13:01:43;96064.81;;;16.45;35.37
58092;BME280;43896;48.178;11.578;2023-02-21T13:07:22;96056.50;;;16.69;35.23
58092;BME280;43896;48.178;11.578;2023-02-21T13:12:34;96045.31;;;17.31;32.76
58092;BME280;43896;48.178;11.578;2023-02-21T13:15:16;96050.00;;;17.29;33.40
58092;BME280;43896;48.178;11.578;2023-02-21T13:17:49;96043.00;;;16.93;33.87
58092;BME280;43896;48.178;11.578;2023-02-21T13:20:19;96028.41;;;17.38;32.75
58092;BME280;43896;48.178;11.578;2023-02-21T13:28:52;96016.91;;;17.31;33.60
58092;BME280;43896;48.178;11.578;2023-02-21T13:31:41;96014.66;;;17.28;34.29
58092;BME280;43896;48.178;11.578;2023-02-21T13:34:08;96016.03;;;17.24;34.21
58092;BME280;43896;48.178;11.578;2023-02-21T13:36:42;96011.13;;;17.28;33.94
58092;BME280;43896;48.178;11.578;2023-02-21T13:41:39;95995.19;;;17.28;33.69
58092;BME280;43896;48.178;11.578;2023-02-21T13:44:12;96002.31;;;17.62;33.35
58092;BME280;43896;48.178;11.578;2023-02-21T13:46:55;95998.66;;;17.21;34.51
58092;BME280;43896;48.178;11.578;2023-02-21T13:49:54;95989.91;;;17.76;34.18
58092;BME280;43896;48.178;11.578;2023-02-21T14:06:14;95970.56;;;17.95;32.36
58092;BME280;43896;48.178;11.578;2023-02-21T14:08:18;95963.44;;;18.16;32.19
58092;BME280;43896;48.178;11.578;2023-02-21T14:10:50;95961.16;;;18.06;32.14
58092;BME280;43896;48.178;11.578;2023-02-21T14:13:29;95945.38;;;18.05;32.71
58092;BME280;43896;48.178;11.578;2023-02-21T14:16:07;95958.09;;;17.48;33.29
58092;BME280;43896;48.178;11.578;2023-02-21T14:18:50;95965.53;;;17.72;32.92
58092;BME280;43896;48.178;11.578;2023-02-21T14:21:25;95953.56;;;17.90;32.90
58092;BME280;43896;48.178;11.578;2023-02-21T14:23:56;95947.34;;;17.83;32.55
58092;BME280;43896;48.178;11.578;2023-02-21T14:26:38;95940.06;;;18.05;32.05
58092;BME280;43896;48.178;11.578;2023-02-21T14:40:02;95945.22;;;18.53;31.68
58092;BME280;43896;48.178;11.578;2023-02-21T14:50:39;95927.81;;;18.30;31.91
58092;BME280;43896;48.178;11.578;2023-02-21T15:04:57;95904.03;;;18.02;33.69
58092;BME280;43896;48.178;11.578;2023-02-21T15:07:31;95913.00;;;17.88;33.75
58092;BME280;43896;48.178;11.578;2023-02-21T15:10:15;95911.38;;;17.87;33.89
58092;BME280;43896;48.178;11.578;2023-02-21T15:12:46;95906.47;;;17.29;34.38
58092;BME280;43896;48.178;11.578;2023-02-21T15:18:23;95897.31;;;16.96;34.68
58092;BME280;43896;48.178;11.578;2023-02-21T15:23:40;95893.16;;;16.52;35.68
58092;BME280;43896;48.178;11.578;2023-02-21T15:26:26;95898.66;;;16.22;36.06
58092;BME280;43896;48.178;11.578;2023-02-21T15:29:13;95890.47;;;16.45;35.83
58092;BME280;43896;48.178;11.578;2023-02-21T15:31:51;95879.44;;;16.48;35.90
58092;BME280;43896;48.178;11.578;2023-02-21T15:34:24;95878.63;;;16.48;35.64
58092;BME280;43896;48.178;11.578;2023-02-21T15:39:39;95876.44;;;16.58;35.71